Terminal Aerodrome Forecast
Issued by NWS Sioux Falls, SD

Home | Current Version | Previous Version | Text Only | Print | Product List | Glossary On
Versions: 1 2 3 4 5 6 7 8 9 10 11 12 13 14 15 16 17 18 19 20 21 22 23
221
FTUS43 KFSD 030548
TAFFSD
TAF
KFSD 030548Z 0306/0406 VRB03KT P6SM OVC025
     FM031000 18003KT P6SM BKN035
     FM031400 17008KT P6SM SCT012 BKN080
     FM031800 16008KT P6SM OVC060
     FM032100 16010KT P6SM -RASN BKN035
     FM040200 17012KT P6SM BKN015=

USA.gov is the U.S. government's official web portal to all federal, state and local government web resources and services.